createdAt,value
2023-01-17T00:02:06.665Z,100.00
2023-01-17T00:04:52.366Z,100.00
2023-01-17T00:07:39.348Z,100.00
2023-01-17T00:10:27.463Z,100.00
2023-01-17T00:13:04.950Z,100.00
2023-01-17T00:15:31.902Z,100.00
2023-01-17T00:17:58.943Z,100.00
2023-01-17T00:20:47.121Z,100.00
2023-01-17T00:23:42.099Z,100.00
2023-01-17T00:26:15.797Z,100.00
2023-01-17T00:28:43.404Z,100.00
2023-01-17T00:31:12.371Z,100.00
2023-01-17T00:33:39.436Z,100.00
2023-01-17T00:36:06.686Z,100.00
2023-01-17T00:38:35.500Z,100.00
2023-01-17T00:41:10.328Z,100.00
2023-01-17T00:43:55.616Z,100.00
2023-01-17T00:46:40.889Z,100.00
2023-01-17T00:49:26.078Z,100.00
2023-01-17T00:52:11.824Z,100.00
2023-01-17T00:54:56.904Z,100.00
2023-01-17T00:57:41.926Z,100.00
2023-01-17T01:00:27.759Z,100.00
2023-01-17T01:03:12.836Z,100.00
2023-01-17T01:05:57.606Z,100.00
2023-01-17T01:08:45.344Z,100.00
2023-01-17T01:11:36.144Z,100.00
2023-01-17T01:14:22.136Z,100.00
2023-01-17T01:17:07.220Z,100.00
2023-01-17T01:19:52.434Z,100.00
2023-01-17T01:22:37.896Z,100.00
2023-01-17T01:25:23.396Z,100.00
2023-01-17T01:28:08.844Z,100.00
2023-01-17T01:30:54.242Z,100.00
2023-01-17T01:33:20.890Z,100.00
2023-01-17T01:35:53.665Z,100.00
2023-01-17T01:38:22.669Z,100.00
2023-01-17T01:40:52.085Z,100.00
2023-01-17T01:43:21.878Z,100.00
2023-01-17T01:45:58.232Z,100.00
2023-01-17T01:48:48.012Z,100.00
2023-01-17T01:51:19.919Z,100.00
2023-01-17T01:53:52.786Z,100.00
2023-01-17T01:56:23.429Z,100.00
2023-01-17T01:58:52.419Z,100.00
2023-01-17T02:01:19.846Z,100.00
2023-01-17T02:03:48.013Z,100.00
2023-01-17T02:06:39.438Z,100.00
2023-01-17T02:09:09.223Z,100.00
2023-01-17T02:11:39.079Z,100.00
2023-01-17T02:14:05.827Z,100.00
2023-01-17T02:16:45.120Z,100.00
2023-01-17T02:19:43.136Z,100.00
2023-01-17T02:22:31.156Z,100.00
2023-01-17T02:25:03.790Z,100.00
2023-01-17T02:28:08.886Z,100.00
2023-01-17T02:30:39.404Z,100.00
2023-01-17T02:33:24.444Z,100.00
2023-01-17T02:36:00.115Z,100.00
2023-01-17T02:38:45.200Z,100.00
2023-01-17T02:41:40.783Z,100.00
2023-01-17T02:44:15.349Z,100.00
2023-01-17T02:47:24.769Z,100.00
2023-01-17T02:49:58.449Z,100.00
2023-01-17T02:52:50.122Z,100.00
2023-01-17T02:55:30.403Z,100.00
2023-01-17T02:58:09.049Z,100.00
2023-01-17T03:00:51.773Z,100.00
2023-01-17T03:03:37.183Z,100.00
2023-01-17T03:06:15.170Z,100.00
2023-01-17T03:08:45.512Z,100.00
2023-01-17T03:11:13.317Z,100.00
2023-01-17T03:13:39.959Z,100.00
2023-01-17T03:16:12.772Z,100.00
2023-01-17T03:18:39.476Z,100.00
2023-01-17T03:21:06.070Z,100.00
2023-01-17T03:23:32.544Z,100.00
2023-01-17T03:25:59.079Z,100.00
2023-01-17T03:28:25.539Z,100.00
2023-01-17T03:30:52.117Z,100.00
2023-01-17T03:33:18.863Z,100.00
2023-01-17T03:35:46.374Z,100.00
2023-01-17T03:38:12.923Z,100.00
2023-01-17T03:40:39.416Z,100.00
2023-01-17T03:43:05.928Z,100.00
2023-01-17T03:45:32.443Z,100.00
2023-01-17T03:48:00.114Z,100.00
2023-01-17T03:50:26.881Z,100.00
2023-01-17T03:52:53.427Z,100.00
2023-01-17T03:55:19.915Z,100.00
2023-01-17T03:57:46.389Z,100.00
2023-01-17T04:00:13.744Z,100.00
2023-01-17T04:02:40.411Z,100.00
2023-01-17T04:05:07.136Z,100.00
2023-01-17T04:07:33.666Z,100.00
2023-01-17T04:10:00.302Z,100.00
2023-01-17T04:12:26.813Z,100.00
2023-01-17T04:14:53.409Z,100.00
2023-01-17T04:17:20.565Z,100.00
2023-01-17T04:19:47.593Z,100.00
2023-01-17T04:22:14.143Z,100.00
2023-01-17T04:24:40.738Z,100.00
2023-01-17T04:27:07.311Z,100.00
2023-01-17T04:29:33.908Z,100.00
2023-01-17T04:32:00.444Z,100.00
2023-01-17T04:34:27.083Z,100.00
2023-01-17T04:36:54.783Z,100.00
2023-01-17T04:39:21.263Z,100.00
2023-01-17T04:41:47.955Z,100.00
2023-01-17T04:44:14.523Z,100.00
2023-01-17T04:46:41.344Z,100.00
2023-01-17T04:49:08.114Z,100.00
2023-01-17T04:51:34.606Z,100.00
2023-01-17T04:54:01.127Z,100.00
2023-01-17T04:56:27.673Z,100.00
2023-01-17T04:58:57.313Z,100.00
2023-01-17T05:01:24.136Z,100.00
2023-01-17T05:03:50.702Z,100.00
2023-01-17T05:06:17.292Z,100.00
2023-01-17T05:08:43.887Z,100.00
2023-01-17T05:11:10.471Z,100.00
2023-01-17T05:13:36.998Z,100.00
2023-01-17T05:16:03.730Z,100.00
2023-01-17T05:18:30.400Z,100.00
2023-01-17T05:21:02.144Z,100.00
2023-01-17T05:23:28.778Z,100.00
2023-01-17T05:25:55.267Z,100.00
2023-01-17T05:28:21.807Z,100.00
2023-01-17T05:30:48.450Z,100.00
2023-01-17T05:33:14.987Z,100.00
2023-01-17T05:35:41.592Z,100.00
2023-01-17T05:38:08.244Z,100.00
2023-01-17T05:40:34.777Z,100.00
2023-01-17T05:43:03.828Z,100.00
2023-01-17T05:45:32.413Z,100.00
2023-01-17T05:47:59.246Z,100.00
2023-01-17T05:50:29.266Z,100.00
2023-01-17T05:53:04.098Z,100.00
2023-01-17T05:55:31.493Z,100.00
2023-01-17T05:57:58.743Z,100.00
2023-01-17T06:00:25.459Z,100.00
2023-01-17T06:02:56.523Z,100.00
2023-01-17T06:05:24.411Z,100.00
2023-01-17T06:07:50.991Z,100.00
2023-01-17T06:10:19.205Z,100.00
2023-01-17T06:12:46.689Z,100.00
2023-01-17T06:15:15.259Z,100.00
2023-01-17T06:17:42.145Z,100.00
2023-01-17T06:20:10.811Z,100.00
2023-01-17T06:22:37.487Z,100.00
2023-01-17T06:25:04.360Z,100.00
2023-01-17T06:27:30.841Z,100.00
2023-01-17T06:29:57.373Z,100.00
2023-01-17T06:32:23.845Z,100.00
2023-01-17T06:34:50.400Z,100.00
2023-01-17T06:37:17.060Z,100.00
2023-01-17T06:39:43.637Z,100.00
2023-01-17T06:42:10.158Z,100.00
2023-01-17T06:44:39.482Z,100.00
2023-01-17T06:47:06.199Z,100.00
2023-01-17T06:49:32.869Z,100.00
2023-01-17T06:51:59.477Z,100.00
2023-01-17T06:54:27.097Z,100.00
2023-01-17T06:56:54.314Z,100.00
2023-01-17T06:59:21.067Z,100.00
2023-01-17T07:01:47.604Z,100.00
2023-01-17T07:04:14.197Z,100.00
2023-01-17T07:06:41.083Z,100.00
2023-01-17T07:09:07.612Z,100.00
2023-01-17T07:11:34.086Z,100.00
2023-01-17T07:14:00.588Z,100.00
2023-01-17T07:16:27.210Z,100.00
2023-01-17T07:18:54.844Z,100.00
2023-01-17T07:21:21.937Z,100.00
2023-01-17T07:23:48.751Z,100.00
2023-01-17T07:26:17.301Z,100.00
2023-01-17T07:28:44.201Z,100.00
2023-01-17T07:31:10.863Z,100.00
2023-01-17T07:33:37.816Z,100.00
2023-01-17T07:36:09.247Z,100.00
2023-01-17T07:38:36.007Z,100.00
2023-01-17T07:41:02.933Z,100.00
2023-01-17T07:43:29.521Z,100.00
2023-01-17T07:45:56.295Z,100.00
2023-01-17T07:48:24.641Z,100.00
2023-01-17T07:50:56.213Z,100.00
2023-01-17T07:53:25.125Z,100.00
2023-01-17T07:55:51.891Z,100.00
2023-01-17T07:58:18.984Z,100.00
2023-01-17T08:00:45.796Z,100.00
2023-01-17T08:03:15.054Z,100.00
2023-01-17T08:05:43.715Z,100.00
2023-01-17T08:08:10.376Z,100.00
2023-01-17T08:10:36.980Z,100.00
2023-01-17T08:13:03.541Z,100.00
2023-01-17T08:15:30.134Z,100.00
2023-01-17T08:17:58.651Z,100.00
2023-01-17T08:20:27.909Z,100.00
2023-01-17T08:22:56.572Z,100.00
2023-01-17T08:25:24.953Z,100.00
2023-01-17T08:27:56.263Z,100.00
2023-01-17T08:30:23.731Z,100.00
2023-01-17T08:32:50.338Z,100.00
2023-01-17T08:35:16.904Z,100.00
2023-01-17T08:37:43.657Z,100.00
2023-01-17T08:40:11.186Z,100.00
2023-01-17T08:42:40.389Z,100.00
2023-01-17T08:45:08.989Z,100.00
2023-01-17T08:47:36.123Z,100.00
2023-01-17T08:50:04.430Z,100.00
2023-01-17T08:52:30.984Z,100.00
2023-01-17T08:54:57.709Z,100.00
2023-01-17T08:57:24.343Z,100.00
2023-01-17T08:59:50.938Z,100.00
2023-01-17T09:02:19.593Z,100.00
2023-01-17T09:04:48.605Z,100.00
2023-01-17T09:07:16.851Z,100.00
2023-01-17T09:09:43.735Z,100.00
2023-01-17T09:12:10.602Z,100.00
2023-01-17T09:14:37.817Z,100.00
2023-01-17T09:17:06.881Z,100.00
2023-01-17T09:19:33.434Z,100.00
2023-01-17T09:22:00.083Z,100.00
2023-01-17T09:24:26.817Z,100.00
2023-01-17T09:26:53.387Z,100.00
2023-01-17T09:29:20.074Z,100.00
2023-01-17T09:31:48.234Z,100.00
2023-01-17T09:34:15.213Z,100.00
2023-01-17T09:36:42.272Z,100.00
2023-01-17T09:39:11.649Z,100.00
2023-01-17T09:42:17.239Z,100.00
2023-01-17T09:44:52.265Z,100.00
2023-01-17T09:47:18.750Z,100.00
2023-01-17T09:49:47.397Z,100.00
2023-01-17T09:52:17.714Z,100.00
2023-01-17T09:54:47.621Z,100.00
2023-01-17T09:57:17.240Z,100.00
2023-01-17T10:00:03.187Z,100.00
2023-01-17T10:02:51.364Z,100.00
2023-01-17T10:05:50.224Z,100.00
2023-01-17T10:08:31.383Z,100.00
2023-01-17T10:11:16.685Z,100.00
2023-01-17T10:13:56.150Z,100.00
2023-01-17T10:16:40.542Z,100.00
2023-01-17T10:19:20.003Z,100.00
2023-01-17T10:22:16.069Z,100.00
2023-01-17T10:25:16.253Z,100.00
2023-01-17T10:27:59.107Z,100.00
2023-01-17T10:30:33.840Z,100.00
2023-01-17T10:33:11.868Z,100.00
2023-01-17T10:35:48.600Z,100.00
2023-01-17T10:38:16.668Z,100.00
2023-01-17T10:40:46.149Z,100.00
2023-01-17T10:43:18.635Z,100.00
2023-01-17T10:45:53.101Z,100.00
2023-01-17T10:48:39.596Z,100.00
2023-01-17T10:51:40.902Z,100.00
2023-01-17T10:54:19.340Z,100.00
2023-01-17T10:56:45.958Z,100.00
2023-01-17T10:59:18.124Z,100.00
2023-01-17T11:01:45.136Z,100.00
2023-01-17T11:04:30.857Z,100.00
2023-01-17T11:07:25.349Z,100.00
2023-01-17T11:09:54.461Z,100.00
2023-01-17T11:12:44.165Z,100.00
2023-01-17T11:15:10.642Z,100.00
2023-01-17T11:17:41.924Z,100.00
2023-01-17T11:20:23.535Z,100.00
2023-01-17T11:23:09.032Z,100.00
2023-01-17T11:25:35.718Z,100.00
2023-01-17T11:28:06.297Z,100.00
2023-01-17T11:30:32.780Z,100.00
2023-01-17T11:33:06.260Z,100.00
2023-01-17T11:35:35.342Z,100.00
2023-01-17T11:38:21.025Z,100.00
2023-01-17T11:40:49.474Z,100.00
2023-01-17T11:43:26.527Z,100.00
2023-01-17T11:46:18.694Z,100.00
2023-01-17T11:48:57.490Z,100.00
2023-01-17T11:51:29.790Z,100.00
2023-01-17T11:54:12.370Z,100.00
2023-01-17T11:56:41.214Z,100.00
2023-01-17T11:59:31.587Z,100.00
2023-01-17T12:02:19.779Z,100.00
2023-01-17T12:05:03.705Z,100.00
2023-01-17T12:07:53.635Z,100.00
2023-01-17T12:10:41.077Z,100.00
2023-01-17T12:13:48.396Z,100.00
2023-01-17T12:16:32.033Z,100.00
2023-01-17T12:19:19.785Z,100.00
2023-01-17T12:22:18.711Z,100.00
2023-01-17T12:25:17.424Z,100.00
2023-01-17T12:28:02.634Z,100.00
2023-01-17T12:30:53.115Z,100.00
2023-01-17T12:33:47.407Z,100.00
2023-01-17T12:36:31.278Z,100.00
2023-01-17T12:39:06.493Z,99.85
2023-01-17T12:41:50.981Z,99.52
2023-01-17T12:44:22.356Z,98.55
2023-01-17T12:47:02.587Z,97.74
2023-01-17T12:49:41.751Z,97.26
2023-01-17T12:52:17.275Z,96.91
2023-01-17T12:54:48.602Z,96.40
2023-01-17T12:57:24.113Z,95.82
2023-01-17T13:00:00.339Z,94.29
2023-01-17T13:02:33.479Z,92.86
2023-01-17T13:05:09.045Z,92.45
2023-01-17T13:07:51.657Z,91.31
2023-01-17T13:10:31.058Z,91.68
2023-01-17T13:13:03.573Z,91.62
2023-01-17T13:15:37.643Z,91.72
2023-01-17T13:18:14.089Z,91.47
2023-01-17T13:21:04.797Z,90.94
2023-01-17T13:23:56.412Z,91.22
2023-01-17T13:26:32.981Z,91.44
2023-01-17T13:29:02.483Z,91.06
2023-01-17T13:31:33.181Z,90.06
2023-01-17T13:35:00.883Z,89.77
2023-01-17T13:38:18.388Z,88.96
2023-01-17T13:40:54.533Z,88.58
2023-01-17T13:44:03.141Z,87.23
2023-01-17T13:46:31.199Z,85.83
2023-01-17T13:49:36.716Z,85.55
2023-01-17T13:52:09.738Z,85.54
2023-01-17T13:54:55.782Z,84.96
2023-01-17T13:57:36.255Z,84.01
2023-01-17T14:00:24.456Z,83.01
2023-01-17T14:02:54.649Z,83.54
2023-01-17T14:05:30.608Z,83.33
2023-01-17T14:08:12.692Z,82.87
2023-01-17T14:10:47.243Z,81.88
2023-01-17T14:13:29.071Z,82.33
2023-01-17T14:15:55.981Z,82.40
2023-01-17T14:18:33.164Z,81.87
2023-01-17T14:21:23.560Z,80.82
2023-01-17T14:24:04.874Z,81.48
2023-01-17T14:26:48.300Z,83.51
2023-01-17T14:29:42.846Z,82.98
2023-01-17T14:32:13.079Z,82.68
2023-01-17T14:34:40.034Z,81.97
2023-01-17T14:37:15.974Z,82.72
2023-01-17T14:39:47.844Z,83.37
2023-01-17T14:42:17.885Z,83.04
2023-01-17T14:44:51.437Z,83.85
2023-01-17T14:47:18.086Z,83.98
2023-01-17T14:49:45.077Z,84.57
2023-01-17T14:52:17.340Z,85.03
2023-01-17T14:54:52.486Z,85.42
2023-01-17T14:57:29.466Z,85.83
2023-01-17T15:00:19.051Z,86.35
2023-01-17T15:02:47.703Z,86.53
2023-01-17T15:05:20.510Z,86.68
2023-01-17T15:07:52.986Z,87.11
2023-01-17T15:10:28.078Z,87.65
2023-01-17T15:12:56.370Z,88.57
2023-01-17T15:15:35.176Z,88.35
2023-01-17T15:18:29.457Z,88.65
2023-01-17T15:21:05.032Z,89.16
2023-01-17T15:23:43.572Z,89.30
2023-01-17T15:26:15.131Z,89.83
2023-01-17T15:28:44.817Z,90.37
2023-01-17T15:31:17.658Z,90.66
2023-01-17T15:33:49.487Z,91.56
2023-01-17T15:36:27.797Z,91.84
2023-01-17T15:39:17.992Z,91.92
2023-01-17T15:41:44.662Z,92.43
2023-01-17T15:44:48.607Z,92.38
2023-01-17T15:47:38.985Z,92.69
2023-01-17T15:50:28.534Z,93.03
2023-01-17T15:53:06.963Z,93.12
2023-01-17T15:55:38.428Z,93.77
2023-01-17T15:58:22.966Z,94.40
2023-01-17T16:00:49.569Z,94.43
2023-01-17T16:03:37.563Z,94.63
2023-01-17T16:06:50.313Z,95.41
2023-01-17T16:09:24.894Z,95.48
2023-01-17T16:11:51.492Z,95.58
2023-01-17T16:14:18.106Z,95.97
2023-01-17T16:16:54.066Z,96.21
2023-01-17T16:19:21.446Z,95.87
2023-01-17T16:21:48.508Z,96.18
2023-01-17T16:24:15.346Z,96.35
2023-01-17T16:26:41.931Z,96.92
2023-01-17T16:29:08.580Z,96.74
2023-01-17T16:31:35.404Z,97.01
2023-01-17T16:34:02.089Z,97.38
2023-01-17T16:36:28.827Z,97.30
2023-01-17T16:38:55.398Z,97.46
2023-01-17T16:41:22.469Z,97.83
2023-01-17T16:44:07.718Z,98.12
2023-01-17T16:46:38.085Z,98.13
2023-01-17T16:49:05.047Z,98.07
2023-01-17T16:51:31.887Z,98.54
2023-01-17T16:53:59.656Z,98.36
2023-01-17T16:56:26.334Z,98.34
2023-01-17T16:58:53.596Z,98.76
2023-01-17T17:01:22.542Z,98.45
2023-01-17T17:03:49.411Z,98.66
2023-01-17T17:06:16.243Z,98.84
2023-01-17T17:08:43.269Z,99.06
2023-01-17T17:11:18.566Z,99.14
2023-01-17T17:13:47.151Z,99.20
2023-01-17T17:16:23.794Z,99.49
2023-01-17T17:19:02.408Z,99.41
2023-01-17T17:21:30.661Z,99.33
2023-01-17T17:23:59.074Z,99.15
2023-01-17T17:26:28.862Z,99.69
2023-01-17T17:28:55.649Z,99.33
2023-01-17T17:31:22.715Z,99.54
2023-01-17T17:33:49.654Z,99.41
2023-01-17T17:36:17.476Z,99.79
2023-01-17T17:38:53.587Z,99.52
2023-01-17T17:41:45.622Z,99.62
2023-01-17T17:44:12.386Z,99.84
2023-01-17T17:46:39.089Z,99.78
2023-01-17T17:49:08.749Z,100.00
2023-01-17T17:51:38.140Z,100.00
2023-01-17T17:54:10.830Z,100.00
2023-01-17T17:56:38.670Z,100.00
2023-01-17T17:59:07.684Z,100.00
2023-01-17T18:01:38.117Z,100.00
2023-01-17T18:04:07.479Z,100.00
2023-01-17T18:06:35.206Z,100.00
2023-01-17T18:09:02.493Z,100.00
2023-01-17T18:11:30.369Z,100.00
2023-01-17T18:14:00.277Z,100.00
2023-01-17T18:16:32.672Z,100.00
2023-01-17T18:18:59.748Z,100.00
2023-01-17T18:21:29.203Z,100.00
2023-01-17T18:24:01.106Z,100.00
2023-01-17T18:26:30.474Z,100.00
2023-01-17T18:28:58.931Z,100.00
2023-01-17T18:31:27.550Z,100.00
2023-01-17T18:33:55.044Z,100.00
2023-01-17T18:36:23.683Z,100.00
2023-01-17T18:38:50.631Z,100.00
2023-01-17T18:41:20.461Z,100.00
2023-01-17T18:43:50.535Z,100.00
2023-01-17T18:46:19.465Z,100.00
2023-01-17T18:48:46.602Z,100.00
2023-01-17T18:51:15.545Z,100.00
2023-01-17T18:53:44.355Z,100.00
2023-01-17T18:56:17.737Z,100.00
2023-01-17T18:58:46.086Z,100.00
2023-01-17T19:01:18.583Z,100.00
2023-01-17T19:03:50.484Z,100.00
2023-01-17T19:06:19.626Z,100.00
2023-01-17T19:08:46.381Z,100.00
2023-01-17T19:11:12.909Z,100.00
2023-01-17T19:13:41.950Z,100.00
2023-01-17T19:16:12.872Z,100.00
2023-01-17T19:18:39.668Z,100.00
2023-01-17T19:21:14.376Z,100.00
2023-01-17T19:23:41.687Z,100.00
2023-01-17T19:26:09.408Z,100.00
2023-01-17T19:28:45.853Z,100.00
2023-01-17T19:31:20.365Z,100.00
2023-01-17T19:33:48.335Z,100.00
2023-01-17T19:36:18.677Z,100.00
2023-01-17T19:38:58.689Z,100.00
2023-01-17T19:41:30.509Z,100.00
2023-01-17T19:44:01.414Z,100.00
2023-01-17T19:46:28.433Z,100.00
2023-01-17T19:48:56.967Z,100.00
2023-01-17T19:51:24.758Z,100.00
2023-01-17T19:53:51.455Z,100.00
2023-01-17T19:56:20.619Z,100.00
2023-01-17T19:58:47.747Z,100.00
2023-01-17T20:01:24.686Z,100.00
2023-01-17T20:03:52.031Z,100.00
2023-01-17T20:06:23.219Z,100.00
2023-01-17T20:08:50.090Z,100.00
2023-01-17T20:11:23.650Z,100.00
2023-01-17T20:13:54.552Z,100.00
2023-01-17T20:16:22.059Z,100.00
2023-01-17T20:18:49.650Z,100.00
2023-01-17T20:21:25.757Z,100.00
2023-01-17T20:23:54.342Z,100.00
2023-01-17T20:26:24.139Z,100.00
2023-01-17T20:28:52.059Z,100.00
2023-01-17T20:31:24.162Z,100.00
2023-01-17T20:33:53.311Z,100.00
2023-01-17T20:36:22.400Z,100.00
2023-01-17T20:38:49.844Z,100.00
2023-01-17T20:41:24.774Z,100.00
2023-01-17T20:43:54.075Z,100.00
2023-01-17T20:46:22.923Z,100.00
2023-01-17T20:48:50.809Z,100.00
2023-01-17T20:51:18.676Z,100.00
2023-01-17T20:53:46.331Z,100.00
2023-01-17T20:56:15.048Z,100.00
2023-01-17T20:58:42.362Z,100.00
2023-01-17T21:01:11.286Z,100.00
2023-01-17T21:03:39.361Z,100.00
2023-01-17T21:06:11.291Z,100.00
2023-01-17T21:08:40.500Z,100.00
2023-01-17T21:11:08.984Z,100.00
2023-01-17T21:13:35.610Z,100.00
2023-01-17T21:16:02.962Z,100.00
2023-01-17T21:18:32.856Z,100.00
2023-01-17T21:21:08.030Z,100.00
2023-01-17T21:23:39.076Z,100.00
2023-01-17T21:26:07.249Z,100.00
2023-01-17T21:28:39.482Z,100.00
2023-01-17T21:31:26.914Z,100.00
2023-01-17T21:33:58.721Z,100.00
2023-01-17T21:36:29.047Z,100.00
2023-01-17T21:38:57.923Z,100.00
2023-01-17T21:41:25.879Z,100.00
2023-01-17T21:43:57.611Z,100.00
2023-01-17T21:46:24.663Z,100.00
2023-01-17T21:48:51.316Z,100.00
2023-01-17T21:51:19.626Z,100.00
2023-01-17T21:53:46.233Z,100.00
2023-01-17T21:56:32.875Z,100.00
2023-01-17T21:59:00.289Z,100.00
2023-01-17T22:01:29.706Z,100.00
2023-01-17T22:04:01.188Z,100.00
2023-01-17T22:06:30.666Z,100.00
2023-01-17T22:08:58.123Z,100.00
2023-01-17T22:11:27.175Z,100.00
2023-01-17T22:13:53.950Z,100.00
2023-01-17T22:16:25.941Z,100.00
2023-01-17T22:18:52.655Z,100.00
2023-01-17T22:21:24.381Z,100.00
2023-01-17T22:23:53.962Z,100.00
2023-01-17T22:26:22.515Z,100.00
2023-01-17T22:28:49.111Z,100.00
2023-01-17T22:31:21.228Z,100.00
2023-01-17T22:33:53.459Z,100.00
2023-01-17T22:36:20.316Z,100.00
2023-01-17T22:38:47.128Z,100.00
2023-01-17T22:41:16.847Z,100.00
2023-01-17T22:43:46.647Z,100.00
2023-01-17T22:46:16.265Z,100.00
2023-01-17T22:48:43.000Z,100.00
2023-01-17T22:51:12.172Z,100.00
2023-01-17T22:53:46.369Z,100.00
2023-01-17T22:56:16.331Z,100.00
2023-01-17T22:58:45.047Z,100.00
2023-01-17T23:01:17.606Z,100.00
2023-01-17T23:03:45.370Z,100.00
2023-01-17T23:06:15.150Z,100.00
2023-01-17T23:08:44.619Z,100.00
2023-01-17T23:11:46.088Z,100.00
2023-01-17T23:14:22.732Z,100.00
2023-01-17T23:17:20.350Z,100.00
2023-01-17T23:19:51.373Z,100.00
2023-01-17T23:22:23.468Z,100.00
2023-01-17T23:25:05.215Z,100.00
2023-01-17T23:27:55.946Z,100.00
2023-01-17T23:30:25.225Z,100.00
2023-01-17T23:32:54.783Z,100.00
2023-01-17T23:35:24.123Z,100.00
2023-01-17T23:38:09.240Z,100.00
2023-01-17T23:40:37.651Z,100.00
2023-01-17T23:43:23.044Z,100.00
2023-01-17T23:45:51.005Z,100.00
2023-01-17T23:48:17.900Z,100.00
2023-01-17T23:50:47.856Z,100.00
2023-01-17T23:53:22.472Z,100.00
2023-01-17T23:55:52.083Z,100.00
2023-01-17T23:58:20.639Z,100.00
